createdAt,value
2019-02-26T00:02:17.305Z,5.57
2019-02-26T00:07:23.493Z,5.54
2019-02-26T00:12:26.278Z,5.47
2019-02-26T00:17:27.700Z,5.41
2019-02-26T00:22:29.983Z,5.38
2019-02-26T00:27:35.026Z,5.33
2019-02-26T00:32:38.362Z,5.36
2019-02-26T00:37:40.624Z,5.41
2019-02-26T00:42:42.213Z,5.41
2019-02-26T00:47:46.152Z,5.41
2019-02-26T00:52:47.223Z,5.38
2019-02-26T00:57:48.781Z,5.33
2019-02-26T01:02:50.343Z,5.29
2019-02-26T01:07:54.220Z,5.19
2019-02-26T01:12:56.483Z,5.16
2019-02-26T01:18:01.439Z,5.13
2019-02-26T01:23:03.751Z,5.09
2019-02-26T01:28:05.299Z,5.10
2019-02-26T01:33:08.057Z,5.12
2019-02-26T01:38:12.065Z,5.19
2019-02-26T01:43:14.028Z,5.23
2019-02-26T01:48:18.392Z,5.23
2019-02-26T01:53:19.809Z,5.25
2019-02-26T01:58:22.541Z,5.30
2019-02-26T02:03:25.516Z,5.31
2019-02-26T02:08:27.589Z,5.27
2019-02-26T02:13:30.581Z,5.28
2019-02-26T02:18:32.731Z,5.28
2019-02-26T02:23:34.341Z,5.30
2019-02-26T02:28:35.880Z,5.28
2019-02-26T02:33:37.647Z,5.26
2019-02-26T02:38:39.400Z,5.23
2019-02-26T02:43:40.945Z,5.24
2019-02-26T02:48:42.487Z,5.22
2019-02-26T02:53:45.241Z,5.21
2019-02-26T02:58:49.487Z,5.19
2019-02-26T03:03:53.125Z,5.19
2019-02-26T03:08:54.467Z,5.16
2019-02-26T03:13:56.096Z,5.12
2019-02-26T03:18:57.662Z,5.07
2019-02-26T03:24:02.841Z,5.03
2019-02-26T03:29:03.725Z,4.99
2019-02-26T03:34:10.571Z,4.94
2019-02-26T03:39:08.829Z,4.91
2019-02-26T03:44:10.495Z,4.89
2019-02-26T03:49:12.107Z,4.88
2019-02-26T03:54:13.659Z,4.87
2019-02-26T03:59:15.214Z,4.90
2019-02-26T04:04:16.752Z,4.94
2019-02-26T04:09:19.618Z,4.95
2019-02-26T04:14:22.914Z,4.93
2019-02-26T04:19:26.854Z,4.90
2019-02-26T04:24:29.897Z,4.86
2019-02-26T04:29:36.093Z,4.88
2019-02-26T04:34:43.942Z,4.87
2019-02-26T04:40:05.389Z,4.89
2019-02-26T04:45:26.484Z,4.86
2019-02-26T04:50:29.571Z,4.92
2019-02-26T04:55:35.346Z,4.94
2019-02-26T05:00:36.571Z,4.92
2019-02-26T05:05:38.832Z,4.94
2019-02-26T05:10:40.384Z,4.93
2019-02-26T05:15:43.469Z,4.94
2019-02-26T05:20:48.511Z,4.95
2019-02-26T05:25:48.877Z,4.93
2019-02-26T05:30:51.395Z,4.94
2019-02-26T05:35:52.971Z,4.96
2019-02-26T05:40:55.798Z,4.97
2019-02-26T05:46:00.609Z,5.03
2019-02-26T05:51:03.605Z,5.07
2019-02-26T05:56:05.603Z,5.08
2019-02-26T06:01:07.160Z,5.15
2019-02-26T06:06:08.719Z,5.14
2019-02-26T06:11:10.411Z,5.13
2019-02-26T06:16:12.028Z,5.19
2019-02-26T06:21:15.797Z,5.22
2019-02-26T06:26:17.854Z,5.26
2019-02-26T06:31:21.947Z,5.28
2019-02-26T06:36:25.880Z,5.30
2019-02-26T06:41:41.561Z,5.34
2019-02-26T06:46:43.059Z,5.33
2019-02-26T06:51:45.165Z,5.36
2019-02-26T06:56:49.099Z,5.38
2019-02-26T07:01:55.560Z,5.41
2019-02-26T07:06:57.186Z,5.39
2019-02-26T07:11:58.504Z,5.38
2019-02-26T07:17:00.122Z,5.43
2019-02-26T07:22:01.679Z,5.43
2019-02-26T07:27:04.298Z,5.41
2019-02-26T07:32:06.833Z,5.45
2019-02-26T07:37:09.340Z,5.45
2019-02-26T07:42:14.006Z,5.44
2019-02-26T07:47:15.350Z,5.45
2019-02-26T07:52:16.907Z,5.39
2019-02-26T07:57:20.589Z,5.35
2019-02-26T08:02:21.944Z,5.33
2019-02-26T08:07:24.384Z,5.31
2019-02-26T08:12:27.025Z,5.31
2019-02-26T08:17:28.655Z,5.32
2019-02-26T08:22:32.355Z,5.31
2019-02-26T08:27:35.557Z,5.33
2019-02-26T08:32:39.140Z,5.35
2019-02-26T08:37:40.971Z,5.39
2019-02-26T08:42:43.531Z,5.38
2019-02-26T08:47:45.095Z,5.41
2019-02-26T08:52:49.920Z,5.43
2019-02-26T08:57:51.988Z,5.38
2019-02-26T09:02:56.445Z,5.39
2019-02-26T09:07:57.349Z,5.44
2019-02-26T09:12:58.935Z,5.41
2019-02-26T09:18:00.548Z,5.60
2019-02-26T09:23:02.213Z,5.68
2019-02-26T09:28:03.876Z,5.70
2019-02-26T09:33:06.357Z,5.87
2019-02-26T09:38:09.038Z,5.94
2019-02-26T09:43:12.902Z,6.10
2019-02-26T09:48:16.596Z,6.37
2019-02-26T09:53:17.983Z,6.61
2019-02-26T09:58:21.048Z,6.75
2019-02-26T10:03:23.072Z,6.88
2019-02-26T10:08:25.397Z,7.04
2019-02-26T10:13:28.290Z,7.05
2019-02-26T10:18:32.804Z,6.87
2019-02-26T10:23:34.359Z,6.71
2019-02-26T10:28:39.421Z,6.66
2019-02-26T10:33:41.160Z,6.68
2019-02-26T10:38:42.859Z,6.93
2019-02-26T10:43:44.735Z,6.75
2019-02-26T10:48:47.966Z,6.65
2019-02-26T10:53:49.801Z,6.62
2019-02-26T10:58:54.735Z,6.63
2019-02-26T11:03:55.243Z,6.73
2019-02-26T11:09:01.064Z,6.84
2019-02-26T11:14:02.728Z,7.02
2019-02-26T11:19:07.526Z,7.01
2019-02-26T11:24:11.117Z,7.00
2019-02-26T11:29:12.499Z,6.83
2019-02-26T11:34:14.044Z,6.95
2019-02-26T11:39:16.538Z,7.02
2019-02-26T11:44:20.571Z,6.97
2019-02-26T11:49:21.951Z,7.06
2019-02-26T11:54:23.520Z,7.06
2019-02-26T11:59:25.071Z,7.12
2019-02-26T12:04:26.743Z,7.35
2019-02-26T12:09:32.410Z,7.43
2019-02-26T12:14:34.699Z,7.98
2019-02-26T12:19:37.186Z,8.98
2019-02-26T12:24:38.882Z,9.30
2019-02-26T12:29:42.674Z,9.96
2019-02-26T12:34:45.416Z,10.24
2019-02-26T12:39:49.931Z,10.12
2019-02-26T12:44:50.896Z,9.92
2019-02-26T12:49:52.485Z,10.19
2019-02-26T12:54:55.012Z,10.16
2019-02-26T12:59:57.476Z,10.26
2019-02-26T13:04:59.034Z,10.60
2019-02-26T13:10:03.609Z,9.74
2019-02-26T13:15:19.014Z,10.46
2019-02-26T13:20:25.518Z,10.68
2019-02-26T13:25:27.192Z,10.91
2019-02-26T13:30:28.861Z,10.33
2019-02-26T13:35:30.417Z,9.98
2019-02-26T13:40:38.230Z,9.94
2019-02-26T13:45:35.925Z,10.64
2019-02-26T13:50:39.108Z,10.37
2019-02-26T13:55:40.924Z,10.35
2019-02-26T14:00:42.576Z,10.34
2019-02-26T14:05:44.340Z,10.00
2019-02-26T14:10:46.000Z,10.31
2019-02-26T14:15:47.755Z,10.02
2019-02-26T14:20:49.448Z,9.92
2019-02-26T14:25:51.039Z,10.00
2019-02-26T14:30:52.599Z,10.22
2019-02-26T14:35:54.184Z,10.17
2019-02-26T14:40:55.752Z,9.93
2019-02-26T14:45:57.308Z,9.68
2019-02-26T14:50:59.872Z,9.29
2019-02-26T14:56:01.477Z,9.02
2019-02-26T15:01:03.995Z,9.25
2019-02-26T15:06:05.798Z,9.23
2019-02-26T15:11:07.493Z,9.18
2019-02-26T15:16:09.088Z,9.14
2019-02-26T15:21:10.763Z,9.06
2019-02-26T15:26:12.363Z,9.04
2019-02-26T15:31:14.144Z,8.94
2019-02-26T15:36:15.705Z,8.87
2019-02-26T15:41:17.384Z,8.71
2019-02-26T15:46:20.569Z,8.55
2019-02-26T15:51:23.528Z,8.34
2019-02-26T15:56:29.563Z,8.19
2019-02-26T16:01:29.967Z,8.17
2019-02-26T16:06:31.687Z,8.06
2019-02-26T16:11:34.642Z,7.95
2019-02-26T16:16:37.625Z,7.80
2019-02-26T16:21:39.598Z,7.70
2019-02-26T16:26:43.064Z,7.57
2019-02-26T16:31:45.624Z,7.45
2019-02-26T16:36:49.551Z,7.36
2019-02-26T16:41:51.135Z,7.29
2019-02-26T16:46:52.952Z,7.25
2019-02-26T16:51:56.793Z,7.19
2019-02-26T16:56:58.671Z,7.12
2019-02-26T17:02:01.912Z,7.01
2019-02-26T17:07:04.214Z,6.98
2019-02-26T17:12:06.122Z,6.98
2019-02-26T17:17:10.166Z,6.95
2019-02-26T17:22:11.868Z,6.92
2019-02-26T17:27:14.998Z,6.89
2019-02-26T17:32:17.728Z,6.87
2019-02-26T17:37:21.288Z,6.81
2019-02-26T17:42:23.731Z,6.73
2019-02-26T17:47:25.605Z,6.62
2019-02-26T17:52:29.271Z,6.48
2019-02-26T17:57:34.634Z,6.35
2019-02-26T18:02:35.560Z,6.23
2019-02-26T18:07:38.589Z,6.15
2019-02-26T18:12:42.667Z,6.07
2019-02-26T18:17:45.147Z,6.00
2019-02-26T18:22:46.883Z,5.98
2019-02-26T18:27:49.885Z,5.93
2019-02-26T18:32:57.426Z,5.84
2019-02-26T18:37:56.824Z,5.74
2019-02-26T18:42:58.524Z,5.70
2019-02-26T18:48:00.380Z,5.60
2019-02-26T18:53:05.276Z,5.56
2019-02-26T18:58:07.071Z,5.52
2019-02-26T19:03:09.519Z,5.50
2019-02-26T19:08:11.293Z,5.49
2019-02-26T19:13:12.928Z,5.46
2019-02-26T19:18:14.672Z,5.40
2019-02-26T19:23:16.560Z,5.35
2019-02-26T19:28:18.471Z,5.29
2019-02-26T19:33:21.742Z,5.23
2019-02-26T19:38:27.249Z,5.16
2019-02-26T19:43:28.832Z,5.12
2019-02-26T19:48:32.201Z,5.11
2019-02-26T19:53:35.183Z,5.04
2019-02-26T19:58:40.616Z,5.01
2019-02-26T20:03:40.915Z,4.99
2019-02-26T20:08:42.562Z,4.96
2019-02-26T20:13:44.158Z,4.92
2019-02-26T20:18:45.724Z,4.88
2019-02-26T20:23:47.394Z,4.83
2019-02-26T20:28:48.945Z,4.76
2019-02-26T20:33:50.503Z,4.67
2019-02-26T20:38:52.059Z,4.59
2019-02-26T20:43:53.621Z,4.48
2019-02-26T20:48:55.172Z,4.41
2019-02-26T20:53:56.768Z,4.30
2019-02-26T20:58:58.330Z,4.16
2019-02-26T21:03:59.925Z,4.03
2019-02-26T21:09:06.561Z,3.93
2019-02-26T21:14:07.868Z,3.90
2019-02-26T21:19:10.842Z,3.83
2019-02-26T21:24:14.467Z,3.83
2019-02-26T21:29:17.925Z,3.80
2019-02-26T21:34:21.427Z,3.76
2019-02-26T21:39:24.881Z,3.75
2019-02-26T21:44:28.331Z,3.68
2019-02-26T21:49:31.800Z,3.52
2019-02-26T21:54:35.256Z,3.45
2019-02-26T21:59:38.752Z,3.36
2019-02-26T22:04:42.199Z,3.32
2019-02-26T22:09:43.862Z,3.30
2019-02-26T22:14:45.760Z,3.25
2019-02-26T22:19:47.516Z,3.25
2019-02-26T22:24:49.158Z,3.24
2019-02-26T22:29:50.708Z,3.22
2019-02-26T22:34:53.585Z,3.17
2019-02-26T22:39:58.633Z,3.15
2019-02-26T22:45:00.229Z,3.13
2019-02-26T22:50:03.194Z,3.08
2019-02-26T22:55:08.751Z,3.02
2019-02-26T23:00:49.827Z,3.01
2019-02-26T23:05:53.381Z,3.01
2019-02-26T23:10:57.513Z,2.98
2019-02-26T23:15:59.959Z,2.90
2019-02-26T23:21:01.808Z,2.83
2019-02-26T23:26:04.139Z,2.75
2019-02-26T23:31:06.903Z,2.67
2019-02-26T23:36:08.896Z,2.62
2019-02-26T23:41:10.448Z,2.62
2019-02-26T23:46:12.303Z,2.56
2019-02-26T23:51:13.888Z,2.55
2019-02-26T23:56:16.781Z,2.52
